sensor_id;sensor_type;location;lat;lon;timestamp;P1;durP1;ratioP1;P2;durP2;ratioP2
63906;SDS011;50075;49.484;11.238;2023-04-23T00:00:48;93.43;;;6.70;;
63906;SDS011;50075;49.484;11.238;2023-04-23T00:03:14;105.22;;;7.20;;
63906;SDS011;50075;49.484;11.238;2023-04-23T00:05:41;93.25;;;6.70;;
63906;SDS011;50075;49.484;11.238;2023-04-23T00:08:08;83.18;;;6.32;;
63906;SDS011;50075;49.484;11.238;2023-04-23T00:10:34;80.15;;;6.40;;
63906;SDS011;50075;49.484;11.238;2023-04-23T00:12:59;118.60;;;7.85;;
63906;SDS011;50075;49.484;11.238;2023-04-23T00:15:25;106.78;;;7.20;;
63906;SDS011;50075;49.484;11.238;2023-04-23T00:17:50;95.03;;;6.57;;
63906;SDS011;50075;49.484;11.238;2023-04-23T00:20:16;109.00;;;7.57;;
63906;SDS011;50075;49.484;11.238;2023-04-23T00:22:41;76.90;;;6.25;;
63906;SDS011;50075;49.484;11.238;2023-04-23T00:25:07;112.60;;;7.63;;
63906;SDS011;50075;49.484;11.238;2023-04-23T00:27:33;99.25;;;6.97;;
63906;SDS011;50075;49.484;11.238;2023-04-23T00:29:58;88.57;;;6.63;;
63906;SDS011;50075;49.484;11.238;2023-04-23T00:32:23;136.90;;;8.37;;
63906;SDS011;50075;49.484;11.238;2023-04-23T00:34:49;101.22;;;7.32;;
63906;SDS011;50075;49.484;11.238;2023-04-23T00:37:14;98.57;;;7.10;;
63906;SDS011;50075;49.484;11.238;2023-04-23T00:39:40;95.82;;;7.03;;
63906;SDS011;50075;49.484;11.238;2023-04-23T00:42:05;123.95;;;8.55;;
63906;SDS011;50075;49.484;11.238;2023-04-23T00:44:36;109.45;;;7.53;;
63906;SDS011;50075;49.484;11.238;2023-04-23T00:47:01;94.88;;;6.95;;
63906;SDS011;50075;49.484;11.238;2023-04-23T00:49:27;82.95;;;6.50;;
63906;SDS011;50075;49.484;11.238;2023-04-23T00:51:52;113.97;;;8.20;;
63906;SDS011;50075;49.484;11.238;2023-04-23T00:54:18;89.60;;;7.17;;
63906;SDS011;50075;49.484;11.238;2023-04-23T00:56:43;99.65;;;7.32;;
63906;SDS011;50075;49.484;11.238;2023-04-23T00:59:08;100.07;;;7.28;;
63906;SDS011;50075;49.484;11.238;2023-04-23T01:01:33;104.40;;;7.43;;
63906;SDS011;50075;49.484;11.238;2023-04-23T01:03:59;123.15;;;7.90;;
63906;SDS011;50075;49.484;11.238;2023-04-23T01:06:24;88.95;;;7.15;;
63906;SDS011;50075;49.484;11.238;2023-04-23T01:08:52;86.07;;;6.93;;
63906;SDS011;50075;49.484;11.238;2023-04-23T01:11:18;105.70;;;7.55;;
63906;SDS011;50075;49.484;11.238;2023-04-23T01:13:43;165.90;;;9.95;;
63906;SDS011;50075;49.484;11.238;2023-04-23T01:16:09;93.43;;;7.30;;
63906;SDS011;50075;49.484;11.238;2023-04-23T01:18:34;99.00;;;7.50;;
63906;SDS011;50075;49.484;11.238;2023-04-23T01:21:00;88.57;;;6.85;;
63906;SDS011;50075;49.484;11.238;2023-04-23T01:23:26;121.35;;;8.40;;
63906;SDS011;50075;49.484;11.238;2023-04-23T01:25:52;86.03;;;6.75;;
63906;SDS011;50075;49.484;11.238;2023-04-23T01:28:17;95.43;;;7.45;;
63906;SDS011;50075;49.484;11.238;2023-04-23T01:30:42;96.03;;;7.22;;
63906;SDS011;50075;49.484;11.238;2023-04-23T01:33:08;92.43;;;7.25;;
63906;SDS011;50075;49.484;11.238;2023-04-23T01:35:34;109.70;;;7.40;;
63906;SDS011;50075;49.484;11.238;2023-04-23T01:38:00;86.28;;;6.93;;
63906;SDS011;50075;49.484;11.238;2023-04-23T01:40:26;98.38;;;7.47;;
63906;SDS011;50075;49.484;11.238;2023-04-23T01:42:51;119.22;;;7.93;;
63906;SDS011;50075;49.484;11.238;2023-04-23T01:45:17;99.80;;;7.30;;
63906;SDS011;50075;49.484;11.238;2023-04-23T01:47:43;97.95;;;7.40;;
63906;SDS011;50075;49.484;11.238;2023-04-23T01:50:09;89.28;;;6.90;;
63906;SDS011;50075;49.484;11.238;2023-04-23T01:52:34;84.03;;;6.78;;
63906;SDS011;50075;49.484;11.238;2023-04-23T01:55:00;91.75;;;7.05;;
63906;SDS011;50075;49.484;11.238;2023-04-23T01:57:26;89.28;;;7.15;;
63906;SDS011;50075;49.484;11.238;2023-04-23T01:59:53;95.22;;;7.15;;
63906;SDS011;50075;49.484;11.238;2023-04-23T02:02:21;149.18;;;9.35;;
63906;SDS011;50075;49.484;11.238;2023-04-23T02:04:46;101.67;;;7.57;;
63906;SDS011;50075;49.484;11.238;2023-04-23T02:07:12;122.90;;;8.00;;
63906;SDS011;50075;49.484;11.238;2023-04-23T02:09:38;109.03;;;7.88;;
63906;SDS011;50075;49.484;11.238;2023-04-23T02:12:03;88.80;;;7.53;;
63906;SDS011;50075;49.484;11.238;2023-04-23T02:14:29;113.82;;;7.97;;
63906;SDS011;50075;49.484;11.238;2023-04-23T02:16:54;111.10;;;7.93;;
63906;SDS011;50075;49.484;11.238;2023-04-23T02:19:20;89.78;;;7.15;;
63906;SDS011;50075;49.484;11.238;2023-04-23T02:21:45;118.80;;;8.20;;
63906;SDS011;50075;49.484;11.238;2023-04-23T02:24:11;101.53;;;7.60;;
63906;SDS011;50075;49.484;11.238;2023-04-23T02:26:36;98.13;;;7.55;;
63906;SDS011;50075;49.484;11.238;2023-04-23T02:29:02;93.23;;;7.43;;
63906;SDS011;50075;49.484;11.238;2023-04-23T02:31:27;102.30;;;7.70;;
63906;SDS011;50075;49.484;11.238;2023-04-23T02:33:52;165.75;;;10.40;;
63906;SDS011;50075;49.484;11.238;2023-04-23T02:36:17;112.93;;;8.13;;
63906;SDS011;50075;49.484;11.238;2023-04-23T02:38:42;87.33;;;6.97;;
63906;SDS011;50075;49.484;11.238;2023-04-23T02:41:09;102.32;;;7.78;;
63906;SDS011;50075;49.484;11.238;2023-04-23T02:43:35;96.47;;;7.28;;
63906;SDS011;50075;49.484;11.238;2023-04-23T02:46:00;110.30;;;8.02;;
63906;SDS011;50075;49.484;11.238;2023-04-23T02:48:33;88.80;;;7.15;;
63906;SDS011;50075;49.484;11.238;2023-04-23T02:50:58;83.53;;;6.90;;
63906;SDS011;50075;49.484;11.238;2023-04-23T02:53:23;108.75;;;8.05;;
63906;SDS011;50075;49.484;11.238;2023-04-23T02:55:49;84.10;;;6.97;;
63906;SDS011;50075;49.484;11.238;2023-04-23T02:58:14;106.80;;;7.90;;
63906;SDS011;50075;49.484;11.238;2023-04-23T03:00:40;89.35;;;7.22;;
63906;SDS011;50075;49.484;11.238;2023-04-23T03:03:05;102.22;;;7.75;;
63906;SDS011;50075;49.484;11.238;2023-04-23T03:05:30;109.57;;;8.15;;
63906;SDS011;50075;49.484;11.238;2023-04-23T03:07:55;102.28;;;7.90;;
63906;SDS011;50075;49.484;11.238;2023-04-23T03:10:21;103.00;;;8.23;;
63906;SDS011;50075;49.484;11.238;2023-04-23T03:12:46;130.30;;;9.40;;
63906;SDS011;50075;49.484;11.238;2023-04-23T03:15:11;93.43;;;8.32;;
63906;SDS011;50075;49.484;11.238;2023-04-23T03:17:37;96.00;;;7.93;;
63906;SDS011;50075;49.484;11.238;2023-04-23T03:20:02;96.40;;;8.32;;
63906;SDS011;50075;49.484;11.238;2023-04-23T03:22:28;137.93;;;9.32;;
63906;SDS011;50075;49.484;11.238;2023-04-23T03:24:53;113.40;;;8.77;;
63906;SDS011;50075;49.484;11.238;2023-04-23T03:27:18;106.50;;;8.40;;
63906;SDS011;50075;49.484;11.238;2023-04-23T03:29:43;99.35;;;7.90;;
63906;SDS011;50075;49.484;11.238;2023-04-23T03:32:09;118.22;;;9.05;;
63906;SDS011;50075;49.484;11.238;2023-04-23T03:34:34;83.28;;;7.63;;
63906;SDS011;50075;49.484;11.238;2023-04-23T03:36:59;97.47;;;7.80;;
63906;SDS011;50075;49.484;11.238;2023-04-23T03:39:25;99.53;;;7.97;;
63906;SDS011;50075;49.484;11.238;2023-04-23T03:41:50;111.47;;;8.33;;
63906;SDS011;50075;49.484;11.238;2023-04-23T03:44:15;115.35;;;8.63;;
63906;SDS011;50075;49.484;11.238;2023-04-23T03:46:40;95.43;;;8.02;;
63906;SDS011;50075;49.484;11.238;2023-04-23T03:49:06;109.65;;;8.20;;
63906;SDS011;50075;49.484;11.238;2023-04-23T03:51:31;123.93;;;8.50;;
63906;SDS011;50075;49.484;11.238;2023-04-23T03:53:56;108.60;;;8.40;;
63906;SDS011;50075;49.484;11.238;2023-04-23T03:56:21;91.33;;;7.47;;
63906;SDS011;50075;49.484;11.238;2023-04-23T03:58:47;112.22;;;8.35;;
63906;SDS011;50075;49.484;11.238;2023-04-23T04:01:12;106.15;;;7.85;;
63906;SDS011;50075;49.484;11.238;2023-04-23T04:03:37;117.70;;;8.63;;
63906;SDS011;50075;49.484;11.238;2023-04-23T04:06:02;101.77;;;7.70;;
63906;SDS011;50075;49.484;11.238;2023-04-23T04:08:28;97.65;;;7.47;;
63906;SDS011;50075;49.484;11.238;2023-04-23T04:10:54;104.30;;;7.75;;
63906;SDS011;50075;49.484;11.238;2023-04-23T04:13:19;95.28;;;6.85;;
63906;SDS011;50075;49.484;11.238;2023-04-23T04:15:44;99.10;;;7.40;;
63906;SDS011;50075;49.484;11.238;2023-04-23T04:18:09;115.70;;;8.15;;
63906;SDS011;50075;49.484;11.238;2023-04-23T04:20:35;91.33;;;7.20;;
63906;SDS011;50075;49.484;11.238;2023-04-23T04:23:00;99.30;;;7.85;;
63906;SDS011;50075;49.484;11.238;2023-04-23T04:25:25;107.78;;;7.93;;
63906;SDS011;50075;49.484;11.238;2023-04-23T04:27:52;91.30;;;7.15;;
63906;SDS011;50075;49.484;11.238;2023-04-23T04:30:17;106.37;;;8.00;;
63906;SDS011;50075;49.484;11.238;2023-04-23T04:32:43;78.07;;;6.77;;
63906;SDS011;50075;49.484;11.238;2023-04-23T04:35:09;96.82;;;7.40;;
63906;SDS011;50075;49.484;11.238;2023-04-23T04:37:36;89.60;;;7.53;;
63906;SDS011;50075;49.484;11.238;2023-04-23T04:40:02;81.15;;;7.57;;
63906;SDS011;50075;49.484;11.238;2023-04-23T04:42:27;124.75;;;8.95;;
63906;SDS011;50075;49.484;11.238;2023-04-23T04:44:52;107.77;;;8.50;;
63906;SDS011;50075;49.484;11.238;2023-04-23T04:47:18;81.18;;;7.25;;
63906;SDS011;50075;49.484;11.238;2023-04-23T04:49:43;122.25;;;9.32;;
63906;SDS011;50075;49.484;11.238;2023-04-23T04:52:09;112.57;;;8.55;;
63906;SDS011;50075;49.484;11.238;2023-04-23T04:54:34;96.63;;;7.88;;
63906;SDS011;50075;49.484;11.238;2023-04-23T04:56:59;128.07;;;8.53;;
63906;SDS011;50075;49.484;11.238;2023-04-23T04:59:26;97.78;;;6.68;;
63906;SDS011;50075;49.484;11.238;2023-04-23T05:01:51;118.80;;;8.43;;
63906;SDS011;50075;49.484;11.238;2023-04-23T05:04:17;111.13;;;8.00;;
63906;SDS011;50075;49.484;11.238;2023-04-23T05:06:42;82.55;;;6.20;;
63906;SDS011;50075;49.484;11.238;2023-04-23T05:09:07;116.30;;;7.97;;
63906;SDS011;50075;49.484;11.238;2023-04-23T05:11:33;113.47;;;8.48;;
63906;SDS011;50075;49.484;11.238;2023-04-23T05:13:59;104.90;;;7.68;;
63906;SDS011;50075;49.484;11.238;2023-04-23T05:16:24;106.53;;;8.48;;
63906;SDS011;50075;49.484;11.238;2023-04-23T05:18:50;104.38;;;8.13;;
63906;SDS011;50075;49.484;11.238;2023-04-23T05:21:16;123.47;;;8.85;;
63906;SDS011;50075;49.484;11.238;2023-04-23T05:23:41;156.88;;;10.60;;
63906;SDS011;50075;49.484;11.238;2023-04-23T05:26:06;91.43;;;7.83;;
63906;SDS011;50075;49.484;11.238;2023-04-23T05:28:31;118.28;;;8.15;;
63906;SDS011;50075;49.484;11.238;2023-04-23T05:30:57;94.40;;;7.80;;
63906;SDS011;50075;49.484;11.238;2023-04-23T05:33:22;107.38;;;8.60;;
63906;SDS011;50075;49.484;11.238;2023-04-23T05:35:47;128.60;;;9.23;;
63906;SDS011;50075;49.484;11.238;2023-04-23T05:38:13;103.20;;;8.20;;
63906;SDS011;50075;49.484;11.238;2023-04-23T05:40:38;92.73;;;8.30;;
63906;SDS011;50075;49.484;11.238;2023-04-23T05:43:03;86.85;;;8.18;;
63906;SDS011;50075;49.484;11.238;2023-04-23T05:45:29;97.53;;;8.27;;
63906;SDS011;50075;49.484;11.238;2023-04-23T05:47:54;117.07;;;9.17;;
63906;SDS011;50075;49.484;11.238;2023-04-23T05:50:19;102.85;;;7.97;;
63906;SDS011;50075;49.484;11.238;2023-04-23T05:52:45;80.60;;;7.63;;
63906;SDS011;50075;49.484;11.238;2023-04-23T05:55:10;95.70;;;8.15;;
63906;SDS011;50075;49.484;11.238;2023-04-23T05:57:36;100.38;;;8.32;;
63906;SDS011;50075;49.484;11.238;2023-04-23T06:00:01;88.93;;;7.65;;
63906;SDS011;50075;49.484;11.238;2023-04-23T06:02:27;135.27;;;9.35;;
63906;SDS011;50075;49.484;11.238;2023-04-23T06:04:53;101.05;;;8.68;;
63906;SDS011;50075;49.484;11.238;2023-04-23T06:07:18;105.13;;;8.45;;
63906;SDS011;50075;49.484;11.238;2023-04-23T06:09:43;99.43;;;8.32;;
63906;SDS011;50075;49.484;11.238;2023-04-23T06:12:09;110.33;;;8.67;;
63906;SDS011;50075;49.484;11.238;2023-04-23T06:14:35;104.05;;;8.20;;
63906;SDS011;50075;49.484;11.238;2023-04-23T06:17:00;104.82;;;8.68;;
63906;SDS011;50075;49.484;11.238;2023-04-23T06:19:25;107.15;;;8.90;;
63906;SDS011;50075;49.484;11.238;2023-04-23T06:21:51;111.75;;;8.75;;
63906;SDS011;50075;49.484;11.238;2023-04-23T06:24:17;103.57;;;8.93;;
63906;SDS011;50075;49.484;11.238;2023-04-23T06:26:42;120.00;;;9.53;;
63906;SDS011;50075;49.484;11.238;2023-04-23T06:29:07;87.83;;;8.43;;
63906;SDS011;50075;49.484;11.238;2023-04-23T06:31:32;105.97;;;8.07;;
63906;SDS011;50075;49.484;11.238;2023-04-23T06:33:58;117.53;;;9.57;;
63906;SDS011;50075;49.484;11.238;2023-04-23T06:36:23;74.50;;;8.50;;
63906;SDS011;50075;49.484;11.238;2023-04-23T06:38:48;108.03;;;10.27;;
63906;SDS011;50075;49.484;11.238;2023-04-23T06:41:14;104.22;;;9.90;;
63906;SDS011;50075;49.484;11.238;2023-04-23T06:43:39;115.05;;;10.18;;
63906;SDS011;50075;49.484;11.238;2023-04-23T06:46:05;141.82;;;11.45;;
63906;SDS011;50075;49.484;11.238;2023-04-23T06:48:30;98.20;;;10.33;;
63906;SDS011;50075;49.484;11.238;2023-04-23T06:50:56;90.47;;;9.25;;
63906;SDS011;50075;49.484;11.238;2023-04-23T06:53:21;123.68;;;10.63;;
63906;SDS011;50075;49.484;11.238;2023-04-23T06:55:47;102.30;;;9.60;;
63906;SDS011;50075;49.484;11.238;2023-04-23T06:58:13;113.88;;;10.25;;
63906;SDS011;50075;49.484;11.238;2023-04-23T07:00:39;83.10;;;9.32;;
63906;SDS011;50075;49.484;11.238;2023-04-23T07:03:04;81.72;;;9.82;;
63906;SDS011;50075;49.484;11.238;2023-04-23T07:05:30;95.38;;;10.10;;
63906;SDS011;50075;49.484;11.238;2023-04-23T07:07:55;67.17;;;8.73;;
63906;SDS011;50075;49.484;11.238;2023-04-23T07:10:20;80.57;;;8.47;;
63906;SDS011;50075;49.484;11.238;2023-04-23T07:12:46;109.70;;;9.50;;
63906;SDS011;50075;49.484;11.238;2023-04-23T07:15:12;71.32;;;7.22;;
63906;SDS011;50075;49.484;11.238;2023-04-23T07:17:37;81.40;;;9.48;;
63906;SDS011;50075;49.484;11.238;2023-04-23T07:20:03;74.90;;;7.07;;
63906;SDS011;50075;49.484;11.238;2023-04-23T07:22:32;74.90;;;8.60;;
63906;SDS011;50075;49.484;11.238;2023-04-23T07:24:58;102.60;;;8.27;;
63906;SDS011;50075;49.484;11.238;2023-04-23T07:27:23;83.72;;;8.00;;
63906;SDS011;50075;49.484;11.238;2023-04-23T07:29:49;88.07;;;8.77;;
63906;SDS011;50075;49.484;11.238;2023-04-23T07:32:14;108.15;;;8.60;;
63906;SDS011;50075;49.484;11.238;2023-04-23T07:34:39;81.90;;;7.65;;
63906;SDS011;50075;49.484;11.238;2023-04-23T07:37:05;99.90;;;8.10;;
63906;SDS011;50075;49.484;11.238;2023-04-23T07:39:31;95.32;;;8.30;;
63906;SDS011;50075;49.484;11.238;2023-04-23T07:41:56;72.82;;;7.32;;
63906;SDS011;50075;49.484;11.238;2023-04-23T07:44:22;97.07;;;8.43;;
63906;SDS011;50075;49.484;11.238;2023-04-23T07:46:47;78.13;;;7.50;;
63906;SDS011;50075;49.484;11.238;2023-04-23T07:49:13;87.67;;;7.90;;
63906;SDS011;50075;49.484;11.238;2023-04-23T07:51:38;80.70;;;7.47;;
63906;SDS011;50075;49.484;11.238;2023-04-23T07:54:03;84.18;;;8.07;;
63906;SDS011;50075;49.484;11.238;2023-04-23T07:56:28;94.65;;;8.40;;
63906;SDS011;50075;49.484;11.238;2023-04-23T07:58:56;68.00;;;7.22;;
63906;SDS011;50075;49.484;11.238;2023-04-23T08:01:22;70.68;;;6.18;;
63906;SDS011;50075;49.484;11.238;2023-04-23T08:03:47;125.55;;;9.13;;
63906;SDS011;50075;49.484;11.238;2023-04-23T08:06:13;73.70;;;6.50;;
63906;SDS011;50075;49.484;11.238;2023-04-23T08:08:38;84.30;;;6.75;;
63906;SDS011;50075;49.484;11.238;2023-04-23T08:11:06;72.03;;;6.93;;
63906;SDS011;50075;49.484;11.238;2023-04-23T08:13:31;86.00;;;7.30;;
63906;SDS011;50075;49.484;11.238;2023-04-23T08:15:57;88.15;;;7.55;;
63906;SDS011;50075;49.484;11.238;2023-04-23T08:18:22;69.50;;;6.93;;
63906;SDS011;50075;49.484;11.238;2023-04-23T08:20:47;63.70;;;6.40;;
63906;SDS011;50075;49.484;11.238;2023-04-23T08:23:13;75.88;;;6.95;;
63906;SDS011;50075;49.484;11.238;2023-04-23T08:25:38;77.87;;;7.27;;
63906;SDS011;50075;49.484;11.238;2023-04-23T08:28:03;83.50;;;7.32;;
63906;SDS011;50075;49.484;11.238;2023-04-23T08:30:29;79.90;;;7.10;;
63906;SDS011;50075;49.484;11.238;2023-04-23T08:32:54;75.80;;;7.07;;
63906;SDS011;50075;49.484;11.238;2023-04-23T08:35:20;120.55;;;8.75;;
63906;SDS011;50075;49.484;11.238;2023-04-23T08:37:45;65.03;;;5.70;;
63906;SDS011;50075;49.484;11.238;2023-04-23T08:40:11;74.43;;;6.60;;
63906;SDS011;50075;49.484;11.238;2023-04-23T08:45:02;84.45;;;6.68;;
63906;SDS011;50075;49.484;11.238;2023-04-23T08:47:28;82.60;;;6.53;;
63906;SDS011;50075;49.484;11.238;2023-04-23T08:49:54;68.72;;;5.45;;
63906;SDS011;50075;49.484;11.238;2023-04-23T08:52:23;140.88;;;8.90;;
63906;SDS011;50075;49.484;11.238;2023-04-23T08:54:50;86.03;;;6.63;;
63906;SDS011;50075;49.484;11.238;2023-04-23T08:57:16;105.40;;;7.10;;
63906;SDS011;50075;49.484;11.238;2023-04-23T08:59:43;74.63;;;5.18;;
63906;SDS011;50075;49.484;11.238;2023-04-23T09:02:09;79.55;;;5.70;;
63906;SDS011;50075;49.484;11.238;2023-04-23T09:04:35;78.22;;;6.28;;
63906;SDS011;50075;49.484;11.238;2023-04-23T09:07:01;99.22;;;6.78;;
63906;SDS011;50075;49.484;11.238;2023-04-23T09:09:27;77.35;;;5.68;;
63906;SDS011;50075;49.484;11.238;2023-04-23T09:11:53;66.28;;;5.13;;
63906;SDS011;50075;49.484;11.238;2023-04-23T09:14:21;85.97;;;6.13;;
63906;SDS011;50075;49.484;11.238;2023-04-23T09:16:48;76.50;;;5.57;;
63906;SDS011;50075;49.484;11.238;2023-04-23T09:19:14;81.97;;;5.97;;
63906;SDS011;50075;49.484;11.238;2023-04-23T09:21:41;66.40;;;5.28;;
63906;SDS011;50075;49.484;11.238;2023-04-23T09:24:10;88.15;;;6.03;;
63906;SDS011;50075;49.484;11.238;2023-04-23T09:26:45;79.57;;;5.78;;
63906;SDS011;50075;49.484;11.238;2023-04-23T09:29:14;78.22;;;5.45;;
63906;SDS011;50075;49.484;11.238;2023-04-23T09:31:42;94.28;;;5.95;;
63906;SDS011;50075;49.484;11.238;2023-04-23T09:34:08;87.53;;;6.32;;
63906;SDS011;50075;49.484;11.238;2023-04-23T09:36:33;95.68;;;6.68;;
63906;SDS011;50075;49.484;11.238;2023-04-23T09:39:00;81.43;;;5.68;;
63906;SDS011;50075;49.484;11.238;2023-04-23T09:41:26;61.60;;;5.00;;
63906;SDS011;50075;49.484;11.238;2023-04-23T09:43:52;151.73;;;8.63;;
63906;SDS011;50075;49.484;11.238;2023-04-23T09:46:17;74.18;;;5.75;;
63906;SDS011;50075;49.484;11.238;2023-04-23T09:48:43;66.07;;;5.10;;
63906;SDS011;50075;49.484;11.238;2023-04-23T09:51:08;81.55;;;5.57;;
63906;SDS011;50075;49.484;11.238;2023-04-23T09:53:41;86.50;;;5.68;;
63906;SDS011;50075;49.484;11.238;2023-04-23T09:56:07;149.18;;;8.73;;
63906;SDS011;50075;49.484;11.238;2023-04-23T09:58:32;80.82;;;5.43;;
63906;SDS011;50075;49.484;11.238;2023-04-23T10:01:07;72.28;;;6.30;;
63906;SDS011;50075;49.484;11.238;2023-04-23T10:03:32;76.05;;;5.60;;
63906;SDS011;50075;49.484;11.238;2023-04-23T10:05:58;79.15;;;5.63;;
63906;SDS011;50075;49.484;11.238;2023-04-23T10:08:23;77.30;;;5.47;;
63906;SDS011;50075;49.484;11.238;2023-04-23T10:10:49;82.88;;;5.65;;
63906;SDS011;50075;49.484;11.238;2023-04-23T10:13:15;85.93;;;5.85;;
63906;SDS011;50075;49.484;11.238;2023-04-23T10:15:41;83.75;;;5.85;;
63906;SDS011;50075;49.484;11.238;2023-04-23T10:18:06;70.97;;;5.18;;
63906;SDS011;50075;49.484;11.238;2023-04-23T10:20:32;91.18;;;5.95;;
63906;SDS011;50075;49.484;11.238;2023-04-23T10:22:58;72.32;;;5.30;;
63906;SDS011;50075;49.484;11.238;2023-04-23T10:25:23;75.63;;;5.53;;
63906;SDS011;50075;49.484;11.238;2023-04-23T10:27:49;73.57;;;5.22;;
63906;SDS011;50075;49.484;11.238;2023-04-23T10:30:16;76.70;;;5.55;;
63906;SDS011;50075;49.484;11.238;2023-04-23T10:32:41;64.75;;;4.85;;
63906;SDS011;50075;49.484;11.238;2023-04-23T10:35:08;132.45;;;8.07;;
63906;SDS011;50075;49.484;11.238;2023-04-23T10:37:34;67.30;;;4.80;;
63906;SDS011;50075;49.484;11.238;2023-04-23T10:40:04;89.65;;;5.70;;
63906;SDS011;50075;49.484;11.238;2023-04-23T10:42:33;75.97;;;5.13;;
63906;SDS011;50075;49.484;11.238;2023-04-23T10:44:58;69.07;;;5.03;;
63906;SDS011;50075;49.484;11.238;2023-04-23T10:47:23;102.33;;;6.07;;
63906;SDS011;50075;49.484;11.238;2023-04-23T10:49:48;52.78;;;3.95;;
63906;SDS011;50075;49.484;11.238;2023-04-23T10:52:14;110.37;;;6.83;;
63906;SDS011;50075;49.484;11.238;2023-04-23T10:54:46;77.32;;;5.03;;
63906;SDS011;50075;49.484;11.238;2023-04-23T10:57:12;76.80;;;5.20;;
63906;SDS011;50075;49.484;11.238;2023-04-23T10:59:38;72.22;;;5.05;;
63906;SDS011;50075;49.484;11.238;2023-04-23T11:02:10;78.60;;;4.90;;
63906;SDS011;50075;49.484;11.238;2023-04-23T11:04:41;86.03;;;5.28;;
63906;SDS011;50075;49.484;11.238;2023-04-23T11:07:07;81.38;;;5.07;;
63906;SDS011;50075;49.484;11.238;2023-04-23T11:12:01;71.30;;;4.75;;
63906;SDS011;50075;49.484;11.238;2023-04-23T11:19:23;65.20;;;4.13;;
63906;SDS011;50075;49.484;11.238;2023-04-23T11:21:59;74.05;;;4.90;;
63906;SDS011;50075;49.484;11.238;2023-04-23T11:26:53;72.10;;;5.05;;
63906;SDS011;50075;49.484;11.238;2023-04-23T11:29:19;68.72;;;4.80;;
63906;SDS011;50075;49.484;11.238;2023-04-23T11:31:45;74.95;;;4.93;;
63906;SDS011;50075;49.484;11.238;2023-04-23T11:34:11;87.20;;;5.57;;
63906;SDS011;50075;49.484;11.238;2023-04-23T11:36:37;69.53;;;4.63;;
63906;SDS011;50075;49.484;11.238;2023-04-23T11:39:02;76.82;;;4.78;;
63906;SDS011;50075;49.484;11.238;2023-04-23T11:41:28;74.85;;;4.88;;
63906;SDS011;50075;49.484;11.238;2023-04-23T11:43:54;124.15;;;7.10;;
63906;SDS011;50075;49.484;11.238;2023-04-23T11:46:20;79.25;;;5.15;;
63906;SDS011;50075;49.484;11.238;2023-04-23T11:48:47;75.40;;;4.78;;
63906;SDS011;50075;49.484;11.238;2023-04-23T11:51:12;64.95;;;4.50;;
63906;SDS011;50075;49.484;11.238;2023-04-23T11:53:43;97.78;;;6.05;;
63906;SDS011;50075;49.484;11.238;2023-04-23T11:56:08;80.28;;;4.97;;
63906;SDS011;50075;49.484;11.238;2023-04-23T11:58:34;96.88;;;5.90;;
63906;SDS011;50075;49.484;11.238;2023-04-23T12:00:59;68.47;;;4.47;;
63906;SDS011;50075;49.484;11.238;2023-04-23T12:03:26;68.65;;;4.80;;
63906;SDS011;50075;49.484;11.238;2023-04-23T12:05:54;86.50;;;5.22;;
63906;SDS011;50075;49.484;11.238;2023-04-23T12:08:20;77.57;;;4.80;;
63906;SDS011;50075;49.484;11.238;2023-04-23T12:13:21;70.85;;;4.72;;
63906;SDS011;50075;49.484;11.238;2023-04-23T12:15:47;75.38;;;4.65;;
63906;SDS011;50075;49.484;11.238;2023-04-23T12:18:13;83.07;;;5.07;;
63906;SDS011;50075;49.484;11.238;2023-04-23T12:20:39;83.03;;;5.28;;
63906;SDS011;50075;49.484;11.238;2023-04-23T12:23:04;72.57;;;4.60;;
63906;SDS011;50075;49.484;11.238;2023-04-23T12:25:33;92.88;;;5.70;;
63906;SDS011;50075;49.484;11.238;2023-04-23T12:27:59;65.78;;;4.45;;
63906;SDS011;50075;49.484;11.238;2023-04-23T12:30:27;84.53;;;5.13;;
63906;SDS011;50075;49.484;11.238;2023-04-23T12:32:58;55.58;;;3.58;;
63906;SDS011;50075;49.484;11.238;2023-04-23T12:35:36;101.82;;;5.93;;
63906;SDS011;50075;49.484;11.238;2023-04-23T12:38:03;79.63;;;4.80;;
63906;SDS011;50075;49.484;11.238;2023-04-23T12:40:28;86.57;;;5.22;;
63906;SDS011;50075;49.484;11.238;2023-04-23T12:42:54;74.70;;;4.63;;
63906;SDS011;50075;49.484;11.238;2023-04-23T12:45:19;91.67;;;5.57;;
63906;SDS011;50075;49.484;11.238;2023-04-23T12:47:44;83.07;;;4.95;;
63906;SDS011;50075;49.484;11.238;2023-04-23T12:50:09;81.45;;;5.00;;
63906;SDS011;50075;49.484;11.238;2023-04-23T12:52:35;85.45;;;4.93;;
63906;SDS011;50075;49.484;11.238;2023-04-23T12:55:00;81.90;;;5.05;;
63906;SDS011;50075;49.484;11.238;2023-04-23T12:57:26;75.35;;;4.50;;
63906;SDS011;50075;49.484;11.238;2023-04-23T12:59:52;87.25;;;5.35;;
63906;SDS011;50075;49.484;11.238;2023-04-23T13:02:18;91.47;;;5.55;;
63906;SDS011;50075;49.484;11.238;2023-04-23T13:04:44;86.47;;;5.07;;
63906;SDS011;50075;49.484;11.238;2023-04-23T13:07:09;77.50;;;5.03;;
63906;SDS011;50075;49.484;11.238;2023-04-23T13:09:34;71.20;;;4.72;;
63906;SDS011;50075;49.484;11.238;2023-04-23T13:12:00;74.13;;;4.72;;
63906;SDS011;50075;49.484;11.238;2023-04-23T13:14:26;78.15;;;4.90;;
63906;SDS011;50075;49.484;11.238;2023-04-23T13:16:52;51.35;;;3.75;;
63906;SDS011;50075;49.484;11.238;2023-04-23T13:19:17;145.15;;;7.88;;
63906;SDS011;50075;49.484;11.238;2023-04-23T13:21:43;120.55;;;7.03;;
63906;SDS011;50075;49.484;11.238;2023-04-23T13:24:08;131.65;;;7.25;;
63906;SDS011;50075;49.484;11.238;2023-04-23T13:26:33;150.77;;;7.90;;
63906;SDS011;50075;49.484;11.238;2023-04-23T13:28:59;102.18;;;6.43;;
63906;SDS011;50075;49.484;11.238;2023-04-23T13:31:24;106.05;;;6.45;;
63906;SDS011;50075;49.484;11.238;2023-04-23T13:33:50;149.02;;;8.27;;
63906;SDS011;50075;49.484;11.238;2023-04-23T13:36:15;75.35;;;4.72;;
63906;SDS011;50075;49.484;11.238;2023-04-23T13:38:40;89.17;;;5.40;;
63906;SDS011;50075;49.484;11.238;2023-04-23T13:41:06;72.90;;;4.57;;
63906;SDS011;50075;49.484;11.238;2023-04-23T13:43:31;80.57;;;4.87;;
63906;SDS011;50075;49.484;11.238;2023-04-23T13:45:56;88.17;;;5.27;;
63906;SDS011;50075;49.484;11.238;2023-04-23T13:48:21;65.13;;;4.15;;
63906;SDS011;50075;49.484;11.238;2023-04-23T13:50:47;66.82;;;4.30;;
63906;SDS011;50075;49.484;11.238;2023-04-23T13:53:13;55.75;;;3.85;;
63906;SDS011;50075;49.484;11.238;2023-04-23T13:55:38;83.25;;;5.68;;
63906;SDS011;50075;49.484;11.238;2023-04-23T13:58:04;96.43;;;5.72;;
63906;SDS011;50075;49.484;11.238;2023-04-23T14:00:29;113.03;;;6.18;;
63906;SDS011;50075;49.484;11.238;2023-04-23T14:02:55;119.65;;;6.68;;
63906;SDS011;50075;49.484;11.238;2023-04-23T14:05:20;113.55;;;6.20;;
63906;SDS011;50075;49.484;11.238;2023-04-23T14:07:45;114.35;;;5.93;;
63906;SDS011;50075;49.484;11.238;2023-04-23T14:10:11;111.70;;;6.50;;
63906;SDS011;50075;49.484;11.238;2023-04-23T14:12:36;127.22;;;6.80;;
63906;SDS011;50075;49.484;11.238;2023-04-23T14:15:03;100.65;;;6.05;;
63906;SDS011;50075;49.484;11.238;2023-04-23T14:17:28;138.48;;;7.30;;
63906;SDS011;50075;49.484;11.238;2023-04-23T14:19:54;121.20;;;6.65;;
63906;SDS011;50075;49.484;11.238;2023-04-23T14:22:19;143.25;;;7.75;;